Time;durP1;ratioP1;P1;durP2;ratioP2;P2;SDS_P1;SDS_P2;PMS_P1;PMS_P2;Temp;Humidity;BMP_temperature;BMP_pressure;BME280_temperature;BME280_humidity;BME280_pressure;Samples;Min_cycle;Max_cycle;Signal;HPM_P1;HPM_P2
2023/03/28 00:01:44;;;;;;;5.50;1.50;;;2.20;99.90;;;;;;7729708;28;20236;-84
2023/03/28 00:05:30;;;;;;;5.17;1.80;;;2.30;99.90;;;;;;7713804;28;20192;-84
2023/03/28 00:09:16;;;;;;;3.70;1.40;;;2.20;99.90;;;;;;7712522;28;20247;-84
2023/03/28 00:13:03;;;;;;;4.57;1.63;;;2.20;99.90;;;;;;7703940;28;20211;-84
2023/03/28 00:16:49;;;;;;;4.53;1.10;;;2.10;99.90;;;;;;7711435;28;20682;-84
2023/03/28 00:20:41;;;;;;;1.23;1.10;;;2.10;99.90;;;;;;7703852;28;20247;-85
2023/03/28 00:24:27;;;;;;;4.77;1.10;;;2.10;99.90;;;;;;7718623;28;20554;-84
2023/03/28 00:28:13;;;;;;;5.30;1.33;;;2.10;99.90;;;;;;7720190;28;20565;-85
2023/03/28 00:31:59;;;;;;;3.63;1.40;;;2.00;99.90;;;;;;7714479;28;20283;-84
2023/03/28 00:35:44;;;;;;;3.10;1.30;;;2.00;99.90;;;;;;7717441;28;20216;-85
2023/03/28 00:39:30;;;;;;;4.43;1.40;;;2.00;99.90;;;;;;7717733;28;20224;-84
2023/03/28 00:43:16;;;;;;;2.63;1.40;;;2.10;99.90;;;;;;7716752;28;20207;-84
2023/03/28 00:47:01;;;;;;;4.43;1.27;;;2.10;99.90;;;;;;7716819;28;20735;-85
2023/03/28 00:50:47;;;;;;;4.57;1.60;;;2.10;99.90;;;;;;7725308;28;20633;-84
2023/03/28 00:54:38;;;;;;;2.67;1.10;;;2.20;99.90;;;;;;7726778;28;20228;-84
2023/03/28 00:58:28;;;;;;;7.03;1.80;;;2.10;99.90;;;;;;7718235;28;20235;-84
2023/03/28 01:02:14;;;;;;;5.30;1.40;;;2.00;99.90;;;;;;7734546;28;20212;-85
2023/03/28 01:06:03;;;;;;;8.40;1.53;;;2.00;99.90;;;;;;7717700;28;20207;-85
2023/03/28 01:09:50;;;;;;;4.33;1.30;;;2.10;99.90;;;;;;7718026;28;20188;-84
2023/03/28 01:13:41;;;;;;;5.67;1.50;;;2.30;99.90;;;;;;7708879;28;20238;-85
2023/03/28 01:17:26;;;;;;;5.63;1.57;;;2.10;99.90;;;;;;7717400;28;20263;-84
2023/03/28 01:21:30;;;;;;;4.37;1.90;;;2.00;99.90;;;;;;7726880;28;20221;-85
2023/03/28 01:25:42;;;;;;;4.53;1.30;;;2.00;99.90;;;;;;7724687;28;20304;-84
2023/03/28 01:30:17;;;;;;;5.87;1.30;;;1.90;99.90;;;;;;7716897;28;20251;-84
2023/03/28 01:34:30;;;;;;;6.03;1.50;;;1.90;99.90;;;;;;7709871;28;20204;-83
2023/03/28 01:38:43;;;;;;;8.73;1.80;;;1.90;99.90;;;;;;7716693;28;20209;-85
2023/03/28 01:42:51;;;;;;;7.10;2.00;;;1.80;99.90;;;;;;7728331;28;20212;-85
2023/03/28 01:46:42;;;;;;;4.70;2.00;;;1.70;99.90;;;;;;7727542;28;20265;-86
2023/03/28 01:50:55;;;;;;;6.27;2.00;;;1.70;99.90;;;;;;7728973;28;20212;-86
2023/03/28 01:54:50;;;;;;;8.00;2.17;;;1.70;99.90;;;;;;7726633;28;20673;-86
2023/03/28 01:58:46;;;;;;;8.67;2.23;;;1.80;99.90;;;;;;7734408;28;20218;-87
2023/03/28 02:02:42;;;;;;;5.80;1.97;;;1.70;99.90;;;;;;7724110;28;20224;-87
2023/03/28 02:06:30;;;;;;;9.00;1.70;;;1.70;99.90;;;;;;7716800;28;20180;-87
2023/03/28 02:10:20;;;;;;;10.07;2.43;;;1.70;99.90;;;;;;7717212;28;20204;-85
2023/03/28 02:14:10;;;;;;;8.93;2.00;;;1.70;99.90;;;;;;7729203;28;20204;-86
2023/03/28 02:18:04;;;;;;;5.50;1.90;;;1.50;99.90;;;;;;7716642;28;20225;-85
2023/03/28 02:21:57;;;;;;;8.37;2.17;;;1.60;99.90;;;;;;7733450;28;20228;-87
2023/03/28 02:25:42;;;;;;;10.93;1.87;;;1.60;99.90;;;;;;7733080;28;20193;-86
2023/03/28 02:29:29;;;;;;;6.47;2.10;;;1.60;99.90;;;;;;7724181;28;20223;-85
2023/03/28 02:33:38;;;;;;;10.47;1.80;;;1.60;99.90;;;;;;7729888;28;20214;-86
2023/03/28 02:37:40;;;;;;;10.97;2.90;;;1.60;99.90;;;;;;7731054;28;20229;-85
2023/03/28 02:41:40;;;;;;;9.10;2.80;;;1.70;99.90;;;;;;7732259;28;20266;-86
2023/03/28 02:45:40;;;;;;;16.20;2.17;;;1.60;99.90;;;;;;7730149;28;20192;-84
2023/03/28 02:49:37;;;;;;;8.67;2.00;;;1.60;99.90;;;;;;7746662;28;20187;-86
2023/03/28 02:53:33;;;;;;;9.73;2.23;;;1.70;99.90;;;;;;7731848;28;20243;-87
2023/03/28 02:57:43;;;;;;;8.13;2.43;;;1.60;99.90;;;;;;7714827;28;20219;-87
2023/03/28 03:01:29;;;;;;;9.03;2.20;;;1.70;99.90;;;;;;7730784;28;20216;-86
2023/03/28 03:05:16;;;;;;;5.97;2.20;;;1.60;99.90;;;;;;7716393;28;20268;-87
2023/03/28 03:09:07;;;;;;;9.10;2.17;;;1.60;99.90;;;;;;7714484;28;20188;-86
2023/03/28 03:12:53;;;;;;;5.27;2.10;;;1.50;99.90;;;;;;7711025;28;20220;-85
2023/03/28 03:16:38;;;;;;;9.50;3.03;;;1.50;99.90;;;;;;7715198;28;20224;-86
2023/03/28 03:20:25;;;;;;;6.97;2.10;;;1.40;99.90;;;;;;7715091;28;20216;-86
2023/03/28 03:24:11;;;;;;;7.57;2.20;;;1.40;99.90;;;;;;7717571;28;20196;-84
2023/03/28 03:27:56;;;;;;;8.97;2.70;;;1.50;99.90;;;;;;7714590;28;20277;-86
2023/03/28 03:31:42;;;;;;;5.13;2.33;;;1.40;99.90;;;;;;7715595;28;20896;-86
2023/03/28 03:35:32;;;;;;;6.37;2.67;;;1.40;99.90;;;;;;7719738;28;20196;-86
2023/03/28 03:39:17;;;;;;;7.10;3.00;;;1.50;99.90;;;;;;7728684;28;20668;-90
2023/03/28 03:43:03;;;;;;;9.17;3.23;;;1.60;99.90;;;;;;7732619;28;20216;-89
2023/03/28 03:46:49;;;;;;;6.20;3.90;;;1.40;99.90;;;;;;7712887;28;20204;-89
2023/03/28 03:50:35;;;;;;;8.70;4.17;;;1.50;99.90;;;;;;7716728;28;20295;-88
2023/03/28 03:54:20;;;;;;;8.97;3.07;;;1.40;99.90;;;;;;7710015;28;20208;-89
2023/03/28 03:58:06;;;;;;;9.73;3.73;;;1.40;99.90;;;;;;7712768;28;20266;-89
2023/03/28 04:01:52;;;;;;;8.27;3.13;;;1.40;99.90;;;;;;7705568;28;20255;-88
2023/03/28 04:05:37;;;;;;;5.17;2.77;;;1.30;99.90;;;;;;7709167;28;20289;-89
2023/03/28 04:09:26;;;;;;;9.93;2.30;;;1.30;99.90;;;;;;7722277;28;20189;-88
2023/03/28 04:13:11;;;;;;;5.17;2.07;;;1.20;99.90;;;;;;7717544;28;20221;-88
2023/03/28 04:16:57;;;;;;;7.40;1.70;;;1.00;99.90;;;;;;7717702;28;20216;-87
2023/03/28 04:20:54;;;;;;;6.43;1.57;;;1.00;99.90;;;;;;7722741;28;20212;-88
2023/03/28 04:24:40;;;;;;;3.70;2.30;;;0.90;99.90;;;;;;7715609;28;20247;-88
2023/03/28 04:28:26;;;;;;;2.77;1.57;;;0.90;99.90;;;;;;7717841;28;20556;-88
2023/03/28 04:32:12;;;;;;;4.17;1.90;;;1.00;99.90;;;;;;7711628;28;20299;-89
2023/03/28 04:36:00;;;;;;;5.57;1.80;;;1.00;99.90;;;;;;7715700;28;20271;-84
2023/03/28 04:39:46;;;;;;;3.50;1.50;;;0.80;99.90;;;;;;7717158;28;20262;-88
2023/03/28 04:43:32;;;;;;;6.60;1.87;;;0.80;99.90;;;;;;7714358;28;20224;-89
2023/03/28 04:47:21;;;;;;;8.50;2.67;;;0.90;99.90;;;;;;7714199;28;20243;-88
2023/03/28 04:51:07;;;;;;;5.27;2.20;;;0.90;99.90;;;;;;7711109;28;20212;-88
2023/03/28 04:54:53;;;;;;;6.50;2.03;;;0.80;99.90;;;;;;7714328;28;20197;-88
2023/03/28 04:58:40;;;;;;;6.27;2.13;;;0.80;99.90;;;;;;7724370;28;20366;-88
2023/03/28 05:02:26;;;;;;;9.80;2.00;;;0.80;99.90;;;;;;7726026;28;20295;-88
2023/03/28 05:06:11;;;;;;;5.20;1.93;;;0.80;99.90;;;;;;7725795;28;20224;-88
2023/03/28 05:09:57;;;;;;;12.80;2.37;;;0.70;99.90;;;;;;7724928;28;20201;-88
2023/03/28 05:13:42;;;;;;;10.40;2.33;;;0.80;99.90;;;;;;7734460;28;20220;-90
2023/03/28 05:17:28;;;;;;;7.00;2.87;;;0.90;99.90;;;;;;7717798;28;20275;-89
2023/03/28 05:21:14;;;;;;;7.87;3.57;;;0.80;99.90;;;;;;7715696;28;20236;-88
2023/03/28 05:24:59;;;;;;;13.67;4.53;;;0.80;99.90;;;;;;7733465;28;20279;-87
2023/03/28 05:28:45;;;;;;;8.77;3.50;;;0.80;99.90;;;;;;7720911;28;20185;-86
2023/03/28 05:32:31;;;;;;;6.30;1.73;;;0.80;99.90;;;;;;7728180;28;20220;-87
2023/03/28 05:36:17;;;;;;;3.37;1.87;;;0.80;99.90;;;;;;7756290;28;20204;-88
2023/03/28 05:40:05;;;;;;;5.07;2.93;;;0.90;99.90;;;;;;7730908;28;20203;-88
2023/03/28 05:43:51;;;;;;;4.77;2.00;;;0.90;99.90;;;;;;7733418;28;20752;-88
2023/03/28 05:47:36;;;;;;;3.87;1.67;;;1.00;99.90;;;;;;7717565;28;20710;-87
2023/03/28 05:51:22;;;;;;;6.37;1.70;;;1.00;99.90;;;;;;7717029;28;20288;-86
2023/03/28 05:55:08;;;;;;;5.07;2.00;;;1.10;99.90;;;;;;7720396;28;20707;-86
2023/03/28 05:58:53;;;;;;;2.80;1.50;;;1.20;99.90;;;;;;7720283;28;20208;-87
2023/03/28 06:02:41;;;;;;;4.37;1.67;;;1.20;99.90;;;;;;7718455;28;20260;-88
2023/03/28 06:06:27;;;;;;;6.13;2.30;;;1.20;99.90;;;;;;7738576;28;20211;-86
2023/03/28 06:10:14;;;;;;;8.90;2.53;;;1.20;99.90;;;;;;7717250;28;20201;-87
2023/03/28 06:14:00;;;;;;;9.23;2.00;;;1.20;99.90;;;;;;7715910;28;20588;-87
2023/03/28 06:17:45;;;;;;;5.50;1.80;;;1.20;99.90;;;;;;7714039;28;20270;-87
2023/03/28 06:21:31;;;;;;;6.53;2.10;;;1.20;99.90;;;;;;7715386;28;20604;-88
2023/03/28 06:25:17;;;;;;;4.13;1.93;;;1.30;99.90;;;;;;7721018;28;20715;-87
2023/03/28 06:29:03;;;;;;;5.77;2.40;;;1.30;99.90;;;;;;7736129;28;20195;-87
2023/03/28 06:32:49;;;;;;;3.90;2.00;;;1.30;99.90;;;;;;7721867;28;20635;-87
2023/03/28 06:36:35;;;;;;;5.73;2.10;;;1.30;99.90;;;;;;7700729;28;20307;-88
2023/03/28 06:40:21;;;;;;;7.73;2.50;;;1.20;99.90;;;;;;7686492;29;20190;-87
2023/03/28 06:44:06;;;;;;;3.73;1.83;;;1.20;99.90;;;;;;7704988;28;20243;-87
2023/03/28 06:47:52;;;;;;;5.03;2.00;;;1.20;99.90;;;;;;7716712;28;20776;-87
2023/03/28 06:51:38;;;;;;;4.00;1.90;;;1.30;99.90;;;;;;7709434;28;20217;-88
2023/03/28 06:55:23;;;;;;;5.53;2.10;;;1.30;99.90;;;;;;7730341;28;20255;-88
2023/03/28 06:59:09;;;;;;;8.07;2.23;;;1.30;99.90;;;;;;7715939;28;20212;-87
2023/03/28 07:02:55;;;;;;;12.00;3.27;;;1.20;99.90;;;;;;7714825;28;20216;-87
2023/03/28 07:06:40;;;;;;;7.47;4.13;;;1.20;99.90;;;;;;7713718;28;20205;-88
2023/03/28 07:10:26;;;;;;;9.03;5.03;;;1.30;99.90;;;;;;7714908;28;20253;-88
2023/03/28 07:14:12;;;;;;;6.83;4.03;;;1.30;99.90;;;;;;7713787;28;20197;-87
2023/03/28 07:17:58;;;;;;;7.00;4.37;;;1.20;99.90;;;;;;7707141;28;20243;-89
2023/03/28 07:21:43;;;;;;;5.17;2.70;;;1.30;99.90;;;;;;7721497;28;20639;-88
2023/03/28 07:25:29;;;;;;;4.87;2.40;;;1.30;99.90;;;;;;7715296;28;20192;-88
2023/03/28 07:29:15;;;;;;;8.37;2.87;;;1.20;99.90;;;;;;7737108;28;20191;-85
2023/03/28 07:33:00;;;;;;;10.43;3.40;;;1.30;99.90;;;;;;7735417;28;20219;-89
2023/03/28 07:36:46;;;;;;;11.33;3.43;;;1.50;99.90;;;;;;7714527;28;20216;-87
2023/03/28 07:40:32;;;;;;;10.63;3.37;;;1.40;99.90;;;;;;7738265;28;20254;-88
2023/03/28 07:44:17;;;;;;;3.93;2.10;;;1.50;99.90;;;;;;7713020;28;20203;-87
2023/03/28 07:48:04;;;;;;;2.87;1.90;;;1.60;99.90;;;;;;7723607;28;20200;-87
2023/03/28 07:51:51;;;;;;;4.50;2.10;;;1.70;99.90;;;;;;7716153;28;20205;-87
2023/03/28 07:55:37;;;;;;;3.43;1.97;;;1.80;99.90;;;;;;7746474;28;20645;-88
2023/03/28 07:59:23;;;;;;;3.20;1.53;;;1.90;99.90;;;;;;7724129;28;20220;-89
2023/03/28 08:03:09;;;;;;;5.37;1.67;;;1.90;99.90;;;;;;7724736;28;20235;-89
2023/03/28 08:06:54;;;;;;;3.47;1.60;;;1.80;99.90;;;;;;7724704;28;20200;-88
2023/03/28 08:10:44;;;;;;;4.50;2.47;;;1.80;99.90;;;;;;7717565;28;20291;-87
2023/03/28 08:14:30;;;;;;;3.07;1.60;;;1.90;99.90;;;;;;7726300;28;20185;-87
2023/03/28 08:18:19;;;;;;;6.40;1.87;;;2.10;99.90;;;;;;7721733;28;20739;-88
2023/03/28 08:22:06;;;;;;;3.47;1.40;;;1.80;99.90;;;;;;7717194;28;20224;-88
2023/03/28 08:26:03;;;;;;;3.70;1.30;;;2.00;99.90;;;;;;7718758;28;20192;-87
2023/03/28 08:29:49;;;;;;;2.00;1.40;;;2.10;99.90;;;;;;7713946;28;20690;-89
2023/03/28 08:33:35;;;;;;;4.27;1.57;;;2.20;99.90;;;;;;7741924;28;20802;-88
2023/03/28 08:37:20;;;;;;;4.83;1.57;;;2.40;99.90;;;;;;7744780;28;20215;-88
2023/03/28 08:41:16;;;;;;;2.63;1.10;;;2.30;99.90;;;;;;7724298;28;20323;-88
2023/03/28 08:45:22;;;;;;;8.57;1.73;;;2.40;99.90;;;;;;7713037;28;20191;-88
2023/03/28 08:49:15;;;;;;;2.20;1.40;;;2.60;99.90;;;;;;7714736;28;20185;-88
2023/03/28 08:53:02;;;;;;;2.27;1.07;;;2.50;99.90;;;;;;7715678;28;20238;-89
2023/03/28 08:56:54;;;;;;;1.57;1.10;;;2.60;99.90;;;;;;7718478;28;20674;-88
2023/03/28 09:00:40;;;;;;;1.90;1.30;;;2.70;99.90;;;;;;7707704;28;20212;-87
2023/03/28 09:04:34;;;;;;;5.03;1.00;;;2.60;99.90;;;;;;7713551;28;20188;-87
2023/03/28 09:08:49;;;;;;;3.70;1.10;;;2.70;99.90;;;;;;7722041;28;20600;-88
2023/03/28 09:13:13;;;;;;;2.57;1.10;;;2.70;99.90;;;;;;7737181;28;20227;-88
2023/03/28 09:17:10;;;;;;;6.07;1.27;;;2.90;99.90;;;;;;7669211;28;20215;-88
2023/03/28 09:21:13;;;;;;;2.13;1.10;;;3.00;99.10;;;;;;7722402;28;20299;-88
2023/03/28 09:25:27;;;;;;;4.50;1.20;;;3.00;99.40;;;;;;7753971;28;20216;-86
2023/03/28 09:29:24;;;;;;;0.80;0.70;;;3.20;99.90;;;;;;7729287;28;20196;-88
2023/03/28 09:33:15;;;;;;;2.27;1.00;;;3.10;99.70;;;;;;7747992;28;20207;-87
2023/03/28 09:37:19;;;;;;;1.73;0.90;;;3.30;96.30;;;;;;7715767;28;20196;-87
2023/03/28 09:41:29;;;;;;;4.10;1.10;;;3.20;96.70;;;;;;7760285;28;20200;-88
2023/03/28 09:45:53;;;;;;;1.33;0.90;;;3.20;96.60;;;;;;7741931;28;20681;-87
2023/03/28 09:49:38;;;;;;;4.93;0.97;;;3.30;94.20;;;;;;7730298;28;20203;-87
2023/03/28 09:53:33;;;;;;;2.10;1.07;;;3.30;94.90;;;;;;7721011;28;20213;-87
2023/03/28 09:57:19;;;;;;;5.83;2.33;;;3.20;92.40;;;;;;7723452;28;20208;-86
2023/03/28 10:01:21;;;;;;;7.33;3.77;;;3.10;90.30;;;;;;7730111;28;20573;-87
2023/03/28 10:05:38;;;;;;;3.57;2.23;;;3.30;90.50;;;;;;7730910;28;20208;-86
2023/03/28 10:09:27;;;;;;;6.00;2.67;;;3.50;90.80;;;;;;7734069;28;20189;-86
2023/03/28 10:13:12;;;;;;;17.07;7.33;;;3.60;87.40;;;;;;7730644;28;20209;-87
2023/03/28 10:17:22;;;;;;;20.10;9.40;;;3.80;91.50;;;;;;7732143;28;20223;-88
2023/03/28 10:21:16;;;;;;;8.30;4.57;;;3.70;90.90;;;;;;7722467;28;20255;-88
2023/03/28 10:25:13;;;;;;;2.83;1.73;;;4.00;89.40;;;;;;7715542;28;20283;-87
2023/03/28 10:29:04;;;;;;;4.63;2.93;;;3.90;82.70;;;;;;7716844;28;20248;-88
2023/03/28 10:33:08;;;;;;;4.47;2.80;;;3.90;87.50;;;;;;7716771;28;20220;-87
2023/03/28 10:36:54;;;;;;;3.60;2.40;;;3.90;82.40;;;;;;7715523;28;20212;-87
2023/03/28 10:40:39;;;;;;;4.60;1.70;;;3.90;87.20;;;;;;7731773;28;20745;-88
2023/03/28 10:44:27;;;;;;;4.60;1.97;;;4.00;83.90;;;;;;7715659;28;20196;-88
2023/03/28 10:48:19;;;;;;;13.43;5.97;;;4.00;85.20;;;;;;7718137;28;20189;-88
2023/03/28 10:52:18;;;;;;;3.03;1.60;;;4.00;84.60;;;;;;7722141;28;20575;-91
2023/03/28 10:56:32;;;;;;;1.43;1.20;;;4.10;86.10;;;;;;7730240;28;20261;-89
2023/03/28 11:00:28;;;;;;;2.83;1.00;;;4.30;83.70;;;;;;7718895;28;20755;-88
2023/03/28 11:04:32;;;;;;;2.10;1.00;;;4.60;83.30;;;;;;7725213;28;20188;-89
2023/03/28 11:08:27;;;;;;;3.20;0.90;;;4.40;77.90;;;;;;7743702;28;20196;-88
2023/03/28 11:12:26;;;;;;;0.90;0.80;;;4.40;80.20;;;;;;7718035;28;20276;-88
2023/03/28 11:16:49;;;;;;;1.27;0.80;;;4.50;79.80;;;;;;7702514;28;20221;-88
2023/03/28 11:20:59;;;;;;;1.93;0.83;;;4.70;80.00;;;;;;7751395;28;20259;-86
2023/03/28 11:24:54;;;;;;;3.50;1.00;;;4.80;79.40;;;;;;7716208;28;20207;-87
2023/03/28 11:28:44;;;;;;;1.47;1.03;;;4.70;76.00;;;;;;7715990;28;20215;-89
2023/03/28 11:32:49;;;;;;;1.23;0.60;;;4.40;80.00;;;;;;7714937;28;20240;-89
2023/03/28 11:36:49;;;;;;;2.57;0.80;;;4.50;78.70;;;;;;7713608;28;20311;-89
2023/03/28 11:40:38;;;;;;;7.87;4.90;;;4.60;78.90;;;;;;7731127;28;20199;-89
2023/03/28 11:44:30;;;;;;;2.33;1.47;;;4.80;81.00;;;;;;7743536;28;20188;-90
2023/03/28 11:48:33;;;;;;;1.80;1.00;;;5.00;80.10;;;;;;7728290;28;20197;-89
2023/03/28 11:52:34;;;;;;;4.43;1.00;;;5.10;79.90;;;;;;7714678;28;20990;-89
2023/03/28 11:56:26;;;;;;;1.17;0.80;;;5.30;83.10;;;;;;7711288;28;20209;-88
2023/03/28 12:00:28;;;;;;;0.83;0.60;;;5.60;79.50;;;;;;7728793;28;20191;-89
2023/03/28 12:04:29;;;;;;;0.97;0.60;;;5.40;76.00;;;;;;7722978;28;20713;-89
2023/03/28 12:08:28;;;;;;;1.87;0.97;;;5.20;73.70;;;;;;7714122;28;20215;-89
2023/03/28 12:12:27;;;;;;;1.10;0.70;;;5.20;74.80;;;;;;7708425;28;20204;-89
2023/03/28 12:16:17;;;;;;;1.80;0.60;;;5.30;77.30;;;;;;7724643;28;20215;-89
2023/03/28 12:20:08;;;;;;;2.30;0.70;;;5.50;77.00;;;;;;7717732;28;20679;-89
2023/03/28 12:24:16;;;;;;;1.87;0.60;;;5.70;78.10;;;;;;7722942;28;20216;-91
2023/03/28 12:28:32;;;;;;;3.00;0.80;;;5.80;77.00;;;;;;7721140;28;20176;-90
2023/03/28 12:32:33;;;;;;;3.17;1.10;;;5.90;76.40;;;;;;7716943;28;20779;-89
2023/03/28 12:36:33;;;;;;;1.73;0.90;;;6.00;75.20;;;;;;7755272;28;20216;-89
2023/03/28 12:40:41;;;;;;;2.23;1.10;;;5.90;75.90;;;;;;7732966;28;20187;-89
2023/03/28 12:44:31;;;;;;;2.57;1.17;;;5.90;77.40;;;;;;7720549;28;20188;-90
2023/03/28 12:48:32;;;;;;;3.17;1.20;;;6.10;76.80;;;;;;7732686;28;20198;-89
2023/03/28 12:52:29;;;;;;;2.90;1.20;;;6.10;75.40;;;;;;7721064;28;20219;-88
2023/03/28 12:56:20;;;;;;;1.60;0.93;;;6.20;76.90;;;;;;7736428;28;20294;-89
2023/03/28 13:00:30;;;;;;;2.93;1.10;;;6.10;74.50;;;;;;7713363;28;20193;-89
2023/03/28 13:04:29;;;;;;;1.93;0.87;;;6.20;77.20;;;;;;7723589;28;20259;-89
2023/03/28 13:08:35;;;;;;;1.47;0.80;;;6.30;74.10;;;;;;7730147;28;20192;-89
2023/03/28 13:12:30;;;;;;;3.10;0.80;;;6.20;75.20;;;;;;7722156;28;20223;-89
2023/03/28 13:16:22;;;;;;;1.53;1.10;;;6.20;75.10;;;;;;7770278;28;20212;-89
2023/03/28 13:20:21;;;;;;;2.00;0.97;;;6.40;76.50;;;;;;7752121;28;20665;-91
2023/03/28 13:24:25;;;;;;;1.63;1.07;;;6.30;73.30;;;;;;7750406;28;20222;-90
2023/03/28 13:28:11;;;;;;;2.63;1.40;;;6.30;75.00;;;;;;7751228;28;20199;-90
2023/03/28 13:32:02;;;;;;;2.77;1.10;;;6.30;75.90;;;;;;7718841;28;20698;-90
2023/03/28 13:36:12;;;;;;;1.97;0.90;;;6.50;73.20;;;;;;7717325;28;20204;-89
2023/03/28 13:39:58;;;;;;;1.40;0.90;;;6.50;71.60;;;;;;7726750;28;20201;-89
2023/03/28 13:43:47;;;;;;;8.40;1.00;;;6.50;72.50;;;;;;7717950;28;20295;-88
2023/03/28 13:47:39;;;;;;;1.67;0.90;;;6.40;71.60;;;;;;7714925;28;20196;-89
2023/03/28 13:51:30;;;;;;;1.83;1.10;;;6.30;71.20;;;;;;7720179;28;20315;-89
2023/03/28 13:55:25;;;;;;;2.13;0.93;;;6.40;73.60;;;;;;7746184;28;20195;-88
2023/03/28 13:59:19;;;;;;;3.47;1.10;;;6.60;74.60;;;;;;7741237;28;20227;-88
2023/03/28 14:03:13;;;;;;;2.90;1.37;;;6.60;73.50;;;;;;7725037;28;20216;-89
2023/03/28 14:07:00;;;;;;;3.40;1.20;;;6.70;72.70;;;;;;7731660;28;20243;-89
2023/03/28 14:10:49;;;;;;;5.13;1.47;;;6.90;73.60;;;;;;7711624;28;20267;-89
2023/03/28 14:14:35;;;;;;;2.53;1.50;;;6.90;71.00;;;;;;7713651;28;20196;-89
2023/03/28 14:18:35;;;;;;;4.47;1.73;;;6.80;72.10;;;;;;7713191;28;20216;-89
2023/03/28 14:22:25;;;;;;;3.33;1.13;;;6.90;75.00;;;;;;7711431;28;20280;-89
2023/03/28 14:26:20;;;;;;;3.80;1.47;;;6.90;74.90;;;;;;7715025;28;20196;-89
2023/03/28 14:30:29;;;;;;;5.67;2.80;;;6.80;74.10;;;;;;7720767;28;20187;-90
2023/03/28 14:34:16;;;;;;;4.30;2.03;;;6.70;74.20;;;;;;7723428;28;20183;-90
2023/03/28 14:38:12;;;;;;;3.90;2.20;;;6.80;79.10;;;;;;7730968;28;20295;-90
2023/03/28 14:42:04;;;;;;;5.17;3.67;;;6.90;77.20;;;;;;7718464;28;20279;-90
2023/03/28 14:45:52;;;;;;;6.93;1.93;;;6.90;77.10;;;;;;7718986;28;20658;-90
2023/03/28 14:49:39;;;;;;;3.23;1.40;;;6.80;73.20;;;;;;7716381;28;20220;-90
2023/03/28 14:53:27;;;;;;;8.40;1.70;;;6.70;75.10;;;;;;7716603;28;20231;-90
2023/03/28 14:57:17;;;;;;;7.57;2.20;;;6.70;74.10;;;;;;7709116;28;20628;-89
2023/03/28 15:01:05;;;;;;;3.63;2.27;;;6.60;72.60;;;;;;7737653;28;20212;-90
2023/03/28 15:04:58;;;;;;;5.40;2.30;;;6.60;74.10;;;;;;7758585;28;20189;-90
2023/03/28 15:08:45;;;;;;;4.57;2.67;;;6.50;73.40;;;;;;7732973;28;20239;-90
2023/03/28 15:12:57;;;;;;;4.30;1.70;;;6.70;72.30;;;;;;7744212;28;20638;-90
2023/03/28 15:16:45;;;;;;;6.70;2.30;;;6.80;71.60;;;;;;7751324;28;20217;-90
2023/03/28 15:20:35;;;;;;;5.07;2.30;;;7.00;71.40;;;;;;7731736;28;20185;-90
2023/03/28 15:24:23;;;;;;;4.23;1.50;;;7.00;68.50;;;;;;7716000;28;20212;-89
2023/03/28 15:28:13;;;;;;;6.93;1.50;;;6.90;71.30;;;;;;7715934;28;20196;-90
2023/03/28 15:32:03;;;;;;;7.70;2.37;;;6.80;70.70;;;;;;7715912;28;20323;-89
2023/03/28 15:35:48;;;;;;;6.00;3.10;;;6.90;72.20;;;;;;7714947;28;20198;-89
2023/03/28 15:39:34;;;;;;;5.10;2.40;;;7.00;72.20;;;;;;7715101;28;20217;-90
2023/03/28 15:44:07;;;;;;;6.30;2.93;;;7.00;71.20;;;;;;7715263;28;20287;-90
2023/03/28 15:47:54;;;;;;;12.53;2.03;;;7.00;73.90;;;;;;7714570;28;20207;-90
2023/03/28 15:52:04;;;;;;;9.40;3.20;;;7.00;73.40;;;;;;7718838;28;20651;-90
2023/03/28 15:55:50;;;;;;;3.87;1.93;;;6.90;73.20;;;;;;7709112;28;20192;-90
2023/03/28 16:00:17;;;;;;;22.57;10.20;;;6.70;73.50;;;;;;7714233;28;20607;-89
2023/03/28 16:04:26;;;;;;;8.83;6.00;;;6.70;75.00;;;;;;7718504;28;20195;-90
2023/03/28 16:08:33;;;;;;;6.03;3.07;;;6.70;75.90;;;;;;7723076;28;20191;-90
2023/03/28 16:12:18;;;;;;;4.10;1.77;;;6.70;77.40;;;;;;7726925;28;20230;-90
2023/03/28 16:16:05;;;;;;;8.27;3.17;;;6.70;76.70;;;;;;7726459;28;20200;-90
2023/03/28 16:19:57;;;;;;;4.37;1.90;;;6.60;76.80;;;;;;7727487;28;20621;-89
2023/03/28 16:23:42;;;;;;;10.67;4.33;;;6.60;78.50;;;;;;7721222;28;20283;-89
2023/03/28 16:27:29;;;;;;;3.17;1.87;;;6.40;78.40;;;;;;7719468;28;20192;-88
2023/03/28 16:31:15;;;;;;;5.53;2.10;;;6.30;79.70;;;;;;7716580;28;20278;-89
2023/03/28 16:35:00;;;;;;;4.47;2.20;;;6.10;82.00;;;;;;7717495;28;20740;-88
2023/03/28 16:38:46;;;;;;;5.83;1.80;;;6.20;85.30;;;;;;7716023;28;20271;-87
2023/03/28 16:42:32;;;;;;;3.87;1.97;;;6.60;87.10;;;;;;7719275;28;20267;-87
2023/03/28 16:46:19;;;;;;;5.57;1.97;;;6.80;85.70;;;;;;7721458;28;20244;-87
2023/03/28 16:50:12;;;;;;;12.87;5.87;;;7.10;84.80;;;;;;7718643;28;20188;-87
2023/03/28 16:54:00;;;;;;;10.67;5.17;;;7.10;83.80;;;;;;7718085;28;20212;-88
2023/03/28 16:57:49;;;;;;;6.30;2.50;;;7.20;84.60;;;;;;7719766;28;20224;-87
2023/03/28 17:01:42;;;;;;;9.47;3.47;;;7.20;85.30;;;;;;7737005;28;20228;-87
2023/03/28 17:05:29;;;;;;;3.67;2.70;;;7.20;87.50;;;;;;7735374;28;20666;-88
2023/03/28 17:09:15;;;;;;;7.23;2.67;;;7.20;89.70;;;;;;7737209;28;20230;-87
2023/03/28 17:13:01;;;;;;;14.63;6.43;;;7.20;90.20;;;;;;7715025;28;20224;-87
2023/03/28 17:16:46;;;;;;;5.70;3.77;;;7.20;90.70;;;;;;7717336;28;20712;-87
2023/03/28 17:20:36;;;;;;;13.63;7.07;;;7.20;91.20;;;;;;7718711;28;20222;-87
2023/03/28 17:24:22;;;;;;;11.17;4.80;;;7.20;91.40;;;;;;7716804;28;20210;-86
2023/03/28 17:28:08;;;;;;;9.97;4.50;;;7.10;91.80;;;;;;7726272;28;20189;-88
2023/03/28 17:31:54;;;;;;;5.80;3.33;;;7.20;92.20;;;;;;7733213;28;20231;-88
2023/03/28 17:35:39;;;;;;;12.37;3.53;;;7.10;92.40;;;;;;7724599;28;20199;-88
2023/03/28 17:39:26;;;;;;;13.13;6.77;;;7.10;92.70;;;;;;7719651;28;20212;-87
2023/03/28 17:43:11;;;;;;;10.57;6.10;;;7.00;93.00;;;;;;7718873;28;20588;-87
2023/03/28 17:46:59;;;;;;;12.70;4.37;;;6.90;93.30;;;;;;7722486;28;20203;-88
2023/03/28 17:50:52;;;;;;;9.47;3.63;;;6.90;93.60;;;;;;7740881;28;20225;-87
2023/03/28 17:54:38;;;;;;;6.90;4.27;;;6.90;93.80;;;;;;7727310;28;20200;-87
2023/03/28 17:58:24;;;;;;;6.80;3.90;;;6.80;93.90;;;;;;7723650;28;20249;-87
2023/03/28 18:02:09;;;;;;;8.50;3.83;;;6.80;94.40;;;;;;7716876;28;20212;-88
2023/03/28 18:05:58;;;;;;;7.87;4.13;;;6.70;94.70;;;;;;7739845;28;20203;-88
2023/03/28 18:09:44;;;;;;;8.10;4.10;;;6.60;94.90;;;;;;7725776;28;20192;-86
2023/03/28 18:13:31;;;;;;;10.57;4.77;;;6.50;95.00;;;;;;7708626;28;20283;-87
2023/03/28 18:17:18;;;;;;;9.83;4.30;;;6.40;95.30;;;;;;7718726;28;20225;-88
2023/03/28 18:21:06;;;;;;;6.67;3.37;;;6.30;96.30;;;;;;7716932;28;20243;-88
2023/03/28 18:24:52;;;;;;;7.20;4.07;;;6.40;96.30;;;;;;7720191;28;20195;-87
2023/03/28 18:28:38;;;;;;;8.70;4.33;;;6.40;96.40;;;;;;7705191;28;20201;-87
2023/03/28 18:32:24;;;;;;;10.97;4.20;;;6.40;97.10;;;;;;7715253;28;20216;-87
2023/03/28 18:36:11;;;;;;;7.40;4.27;;;6.40;97.20;;;;;;7721053;28;20195;-87
2023/03/28 18:39:57;;;;;;;7.90;5.33;;;6.30;97.50;;;;;;7708873;28;20196;-82
2023/03/28 18:43:44;;;;;;;12.07;4.73;;;6.50;97.90;;;;;;7719514;28;20216;-82
2023/03/28 18:47:29;;;;;;;14.40;5.63;;;6.30;98.50;;;;;;7724885;28;20259;-91
2023/03/28 18:51:16;;;;;;;10.17;5.73;;;6.30;98.90;;;;;;7710379;28;20805;-88
2023/03/28 18:55:02;;;;;;;14.63;7.40;;;6.30;99.30;;;;;;7764460;28;20185;-86
2023/03/28 18:58:49;;;;;;;14.97;5.00;;;6.20;99.30;;;;;;7715520;28;20569;-88
2023/03/28 19:02:34;;;;;;;11.47;3.83;;;6.20;99.30;;;;;;7720756;28;20209;-87
2023/03/28 19:06:20;;;;;;;9.53;3.80;;;6.10;99.80;;;;;;7725558;28;20231;-86
2023/03/28 19:10:07;;;;;;;11.37;3.60;;;5.80;98.50;;;;;;7708781;28;20201;-86
2023/03/28 19:13:52;;;;;;;6.67;3.20;;;5.70;99.80;;;;;;7712517;28;20291;-86
2023/03/28 19:17:38;;;;;;;5.60;3.40;;;5.50;99.90;;;;;;7724997;28;20217;-86
2023/03/28 19:21:24;;;;;;;10.83;3.50;;;5.60;99.90;;;;;;7714078;28;20224;-86
2023/03/28 19:25:10;;;;;;;4.90;3.20;;;5.70;99.90;;;;;;7714211;28;20192;-87
2023/03/28 19:28:56;;;;;;;8.67;3.40;;;5.80;99.90;;;;;;7719341;28;20200;-87
2023/03/28 19:32:43;;;;;;;6.47;3.40;;;5.80;99.90;;;;;;7712203;28;20216;-87
2023/03/28 19:36:30;;;;;;;8.80;3.67;;;5.90;99.90;;;;;;7728713;28;20323;-86
2023/03/28 19:40:16;;;;;;;7.47;2.90;;;5.90;99.90;;;;;;7717214;28;20271;-86
2023/03/28 19:44:01;;;;;;;5.33;3.10;;;5.80;99.90;;;;;;7724304;28;20196;-88
2023/03/28 19:47:47;;;;;;;6.43;3.33;;;5.70;99.90;;;;;;7742070;28;20192;-86
2023/03/28 19:51:33;;;;;;;9.83;3.50;;;5.60;99.90;;;;;;7713707;28;20788;-87
2023/03/28 19:55:19;;;;;;;7.77;3.43;;;5.60;99.90;;;;;;7727346;28;20201;-86
2023/03/28 19:59:05;;;;;;;8.00;3.30;;;5.60;99.90;;;;;;7722746;28;20204;-88
2023/03/28 20:02:50;;;;;;;12.47;4.43;;;5.40;99.90;;;;;;7719952;28;20212;-86
2023/03/28 20:06:36;;;;;;;8.37;3.57;;;5.50;99.90;;;;;;7731561;28;20264;-87
2023/03/28 20:10:22;;;;;;;8.13;4.03;;;5.40;99.90;;;;;;7727762;28;20192;-88
2023/03/28 20:14:08;;;;;;;8.30;3.70;;;5.40;99.90;;;;;;7722218;28;20279;-87
2023/03/28 20:17:54;;;;;;;7.53;4.00;;;5.40;99.90;;;;;;7720951;28;20247;-88